sensor_id;sensor_type;location;lat;lon;timestamp;P1;durP1;ratioP1;P2;durP2;ratioP2
75316;SDS011;63913;51.492;10.368;2023-01-28T00:01:07;3.17;;;0.77;;
75316;SDS011;63913;51.492;10.368;2023-01-28T00:03:33;2.13;;;0.90;;
75316;SDS011;63913;51.492;10.368;2023-01-28T00:06:03;3.20;;;0.82;;
75316;SDS011;63913;51.492;10.368;2023-01-28T00:08:29;2.05;;;0.90;;
75316;SDS011;63913;51.492;10.368;2023-01-28T00:10:57;1.02;;;0.70;;
75316;SDS011;63913;51.492;10.368;2023-01-28T00:13:23;2.85;;;0.77;;
75316;SDS011;63913;51.492;10.368;2023-01-28T00:15:55;1.23;;;0.80;;
75316;SDS011;63913;51.492;10.368;2023-01-28T00:21:06;1.00;;;0.73;;
75316;SDS011;63913;51.492;10.368;2023-01-28T00:23:35;1.38;;;0.60;;
75316;SDS011;63913;51.492;10.368;2023-01-28T00:26:02;0.70;;;0.70;;
75316;SDS011;63913;51.492;10.368;2023-01-28T00:28:30;2.70;;;0.63;;
75316;SDS011;63913;51.492;10.368;2023-01-28T00:30:56;2.40;;;0.90;;
75316;SDS011;63913;51.492;10.368;2023-01-28T00:33:28;7.68;;;3.20;;
75316;SDS011;63913;51.492;10.368;2023-01-28T00:35:57;3.40;;;1.67;;
75316;SDS011;63913;51.492;10.368;2023-01-28T00:38:24;2.00;;;0.90;;
75316;SDS011;63913;51.492;10.368;2023-01-28T00:40:50;0.65;;;0.65;;
75316;SDS011;63913;51.492;10.368;2023-01-28T00:43:16;3.60;;;0.77;;
75316;SDS011;63913;51.492;10.368;2023-01-28T00:45:41;1.33;;;0.93;;
75316;SDS011;63913;51.492;10.368;2023-01-28T00:48:06;1.03;;;0.90;;
75316;SDS011;63913;51.492;10.368;2023-01-28T00:50:32;1.30;;;1.00;;
75316;SDS011;63913;51.492;10.368;2023-01-28T00:52:57;2.75;;;1.02;;
75316;SDS011;63913;51.492;10.368;2023-01-28T00:55:23;3.83;;;1.10;;
75316;SDS011;63913;51.492;10.368;2023-01-28T00:57:48;0.90;;;0.80;;
75316;SDS011;63913;51.492;10.368;2023-01-28T01:00:14;2.92;;;0.82;;
75316;SDS011;63913;51.492;10.368;2023-01-28T01:02:40;2.70;;;1.00;;
75316;SDS011;63913;51.492;10.368;2023-01-28T01:05:06;2.55;;;1.40;;
75316;SDS011;63913;51.492;10.368;2023-01-28T01:07:32;1.20;;;1.10;;
75316;SDS011;63913;51.492;10.368;2023-01-28T01:10:05;1.23;;;0.90;;
75316;SDS011;63913;51.492;10.368;2023-01-28T01:12:32;1.00;;;0.88;;
75316;SDS011;63913;51.492;10.368;2023-01-28T01:14:59;1.17;;;1.00;;
75316;SDS011;63913;51.492;10.368;2023-01-28T01:17:24;1.42;;;0.90;;
75316;SDS011;63913;51.492;10.368;2023-01-28T01:19:50;2.28;;;1.13;;
75316;SDS011;63913;51.492;10.368;2023-01-28T01:22:15;3.08;;;1.52;;
75316;SDS011;63913;51.492;10.368;2023-01-28T01:24:40;2.42;;;1.10;;
75316;SDS011;63913;51.492;10.368;2023-01-28T01:27:06;1.65;;;0.85;;
75316;SDS011;63913;51.492;10.368;2023-01-28T01:29:31;2.10;;;1.30;;
75316;SDS011;63913;51.492;10.368;2023-01-28T01:31:58;2.17;;;1.10;;
75316;SDS011;63913;51.492;10.368;2023-01-28T01:34:23;1.60;;;0.93;;
75316;SDS011;63913;51.492;10.368;2023-01-28T01:36:49;2.00;;;1.00;;
75316;SDS011;63913;51.492;10.368;2023-01-28T01:39:14;3.13;;;1.20;;
75316;SDS011;63913;51.492;10.368;2023-01-28T01:41:39;1.73;;;1.50;;
75316;SDS011;63913;51.492;10.368;2023-01-28T01:44:05;3.20;;;1.70;;
75316;SDS011;63913;51.492;10.368;2023-01-28T01:46:33;2.17;;;1.20;;
75316;SDS011;63913;51.492;10.368;2023-01-28T01:49:14;3.25;;;1.02;;
75316;SDS011;63913;51.492;10.368;2023-01-28T01:51:51;2.00;;;1.13;;
75316;SDS011;63913;51.492;10.368;2023-01-28T01:54:38;1.90;;;0.85;;
75316;SDS011;63913;51.492;10.368;2023-01-28T01:57:07;1.20;;;0.90;;
75316;SDS011;63913;51.492;10.368;2023-01-28T01:59:35;2.15;;;1.30;;
75316;SDS011;63913;51.492;10.368;2023-01-28T02:02:04;3.42;;;1.33;;
75316;SDS011;63913;51.492;10.368;2023-01-28T02:04:36;3.75;;;1.50;;
75316;SDS011;63913;51.492;10.368;2023-01-28T02:07:05;3.63;;;1.90;;
75316;SDS011;63913;51.492;10.368;2023-01-28T02:09:33;3.78;;;1.85;;
75316;SDS011;63913;51.492;10.368;2023-01-28T02:12:07;3.65;;;1.80;;
75316;SDS011;63913;51.492;10.368;2023-01-28T02:17:07;1.70;;;1.20;;
75316;SDS011;63913;51.492;10.368;2023-01-28T02:19:36;4.10;;;1.90;;
75316;SDS011;63913;51.492;10.368;2023-01-28T02:28:11;2.75;;;1.38;;
75316;SDS011;63913;51.492;10.368;2023-01-28T02:30:43;2.13;;;1.45;;
75316;SDS011;63913;51.492;10.368;2023-01-28T02:33:26;3.17;;;1.45;;
75316;SDS011;63913;51.492;10.368;2023-01-28T02:36:02;6.25;;;1.98;;
75316;SDS011;63913;51.492;10.368;2023-01-28T02:38:51;2.55;;;1.55;;
75316;SDS011;63913;51.492;10.368;2023-01-28T02:41:24;3.60;;;1.88;;
75316;SDS011;63913;51.492;10.368;2023-01-28T02:43:56;6.13;;;1.95;;
75316;SDS011;63913;51.492;10.368;2023-01-28T02:46:33;3.45;;;1.83;;
75316;SDS011;63913;51.492;10.368;2023-01-28T02:49:23;4.15;;;2.17;;
75316;SDS011;63913;51.492;10.368;2023-01-28T03:00:02;4.75;;;2.47;;
75316;SDS011;63913;51.492;10.368;2023-01-28T03:02:48;6.45;;;2.05;;
75316;SDS011;63913;51.492;10.368;2023-01-28T03:10:23;4.72;;;1.83;;
75316;SDS011;63913;51.492;10.368;2023-01-28T03:12:52;4.68;;;2.00;;
75316;SDS011;63913;51.492;10.368;2023-01-28T03:15:43;4.97;;;2.30;;
75316;SDS011;63913;51.492;10.368;2023-01-28T03:18:46;4.75;;;2.42;;
75316;SDS011;63913;51.492;10.368;2023-01-28T03:21:40;4.80;;;2.25;;
75316;SDS011;63913;51.492;10.368;2023-01-28T03:24:31;4.88;;;2.30;;
75316;SDS011;63913;51.492;10.368;2023-01-28T03:27:27;4.88;;;1.83;;
75316;SDS011;63913;51.492;10.368;2023-01-28T03:30:19;3.72;;;2.10;;
75316;SDS011;63913;51.492;10.368;2023-01-28T03:33:18;4.90;;;2.30;;
75316;SDS011;63913;51.492;10.368;2023-01-28T03:36:03;3.60;;;2.03;;
75316;SDS011;63913;51.492;10.368;2023-01-28T03:38:51;5.15;;;2.10;;
75316;SDS011;63913;51.492;10.368;2023-01-28T03:41:20;3.90;;;2.20;;
75316;SDS011;63913;51.492;10.368;2023-01-28T03:43:48;5.20;;;2.20;;
75316;SDS011;63913;51.492;10.368;2023-01-28T03:46:15;4.10;;;2.08;;
75316;SDS011;63913;51.492;10.368;2023-01-28T03:48:42;5.65;;;2.28;;
75316;SDS011;63913;51.492;10.368;2023-01-28T03:51:11;4.20;;;2.40;;
75316;SDS011;63913;51.492;10.368;2023-01-28T03:53:37;4.80;;;2.60;;
75316;SDS011;63913;51.492;10.368;2023-01-28T03:56:04;4.78;;;2.00;;
75316;SDS011;63913;51.492;10.368;2023-01-28T03:58:30;3.70;;;2.22;;
75316;SDS011;63913;51.492;10.368;2023-01-28T04:01:17;4.13;;;2.38;;
75316;SDS011;63913;51.492;10.368;2023-01-28T04:03:43;7.10;;;2.58;;
75316;SDS011;63913;51.492;10.368;2023-01-28T04:06:13;4.40;;;2.20;;
75316;SDS011;63913;51.492;10.368;2023-01-28T04:08:57;2.28;;;1.67;;
75316;SDS011;63913;51.492;10.368;2023-01-28T04:11:38;4.72;;;2.55;;
75316;SDS011;63913;51.492;10.368;2023-01-28T04:14:05;5.07;;;2.50;;
75316;SDS011;63913;51.492;10.368;2023-01-28T04:16:40;5.63;;;2.33;;
75316;SDS011;63913;51.492;10.368;2023-01-28T04:19:07;6.10;;;2.33;;
75316;SDS011;63913;51.492;10.368;2023-01-28T04:21:35;4.85;;;2.40;;
75316;SDS011;63913;51.492;10.368;2023-01-28T04:24:02;6.35;;;2.20;;
75316;SDS011;63913;51.492;10.368;2023-01-28T04:26:27;4.32;;;2.38;;
75316;SDS011;63913;51.492;10.368;2023-01-28T04:28:53;6.10;;;2.53;;
75316;SDS011;63913;51.492;10.368;2023-01-28T04:31:18;3.80;;;2.13;;
75316;SDS011;63913;51.492;10.368;2023-01-28T04:33:55;4.07;;;2.08;;
75316;SDS011;63913;51.492;10.368;2023-01-28T04:36:42;3.97;;;2.40;;
75316;SDS011;63913;51.492;10.368;2023-01-28T04:39:26;3.70;;;2.20;;
75316;SDS011;63913;51.492;10.368;2023-01-28T04:42:14;3.88;;;2.25;;
75316;SDS011;63913;51.492;10.368;2023-01-28T04:44:58;3.50;;;2.05;;
75316;SDS011;63913;51.492;10.368;2023-01-28T04:47:36;5.57;;;2.10;;
75316;SDS011;63913;51.492;10.368;2023-01-28T04:50:15;6.05;;;2.72;;
75316;SDS011;63913;51.492;10.368;2023-01-28T04:53:18;4.43;;;2.20;;
75316;SDS011;63913;51.492;10.368;2023-01-28T04:56:04;4.18;;;2.30;;
75316;SDS011;63913;51.492;10.368;2023-01-28T04:58:32;2.97;;;1.92;;
75316;SDS011;63913;51.492;10.368;2023-01-28T05:01:01;6.00;;;2.55;;
75316;SDS011;63913;51.492;10.368;2023-01-28T05:03:27;4.18;;;2.13;;
75316;SDS011;63913;51.492;10.368;2023-01-28T05:05:53;4.15;;;2.10;;
75316;SDS011;63913;51.492;10.368;2023-01-28T05:08:25;4.03;;;2.10;;
75316;SDS011;63913;51.492;10.368;2023-01-28T05:10:50;3.45;;;2.00;;
75316;SDS011;63913;51.492;10.368;2023-01-28T05:13:15;3.00;;;1.67;;
75316;SDS011;63913;51.492;10.368;2023-01-28T05:15:42;4.55;;;1.77;;
75316;SDS011;63913;51.492;10.368;2023-01-28T05:18:08;4.85;;;2.00;;
75316;SDS011;63913;51.492;10.368;2023-01-28T05:23:05;4.10;;;2.10;;
75316;SDS011;63913;51.492;10.368;2023-01-28T05:25:47;2.65;;;1.73;;
75316;SDS011;63913;51.492;10.368;2023-01-28T05:28:12;4.40;;;2.10;;
75316;SDS011;63913;51.492;10.368;2023-01-28T05:30:38;3.72;;;1.55;;
75316;SDS011;63913;51.492;10.368;2023-01-28T05:33:03;3.17;;;1.30;;
75316;SDS011;63913;51.492;10.368;2023-01-28T05:35:29;3.28;;;1.70;;
75316;SDS011;63913;51.492;10.368;2023-01-28T05:37:55;4.72;;;1.70;;
75316;SDS011;63913;51.492;10.368;2023-01-28T05:40:22;5.43;;;1.67;;
75316;SDS011;63913;51.492;10.368;2023-01-28T05:42:49;6.15;;;2.10;;
75316;SDS011;63913;51.492;10.368;2023-01-28T05:45:33;3.88;;;1.70;;
75316;SDS011;63913;51.492;10.368;2023-01-28T05:48:02;3.28;;;2.00;;
75316;SDS011;63913;51.492;10.368;2023-01-28T05:50:47;8.23;;;2.92;;
75316;SDS011;63913;51.492;10.368;2023-01-28T05:53:20;7.18;;;2.95;;
75316;SDS011;63913;51.492;10.368;2023-01-28T05:55:49;5.13;;;2.13;;
75316;SDS011;63913;51.492;10.368;2023-01-28T05:58:16;7.80;;;3.08;;
75316;SDS011;63913;51.492;10.368;2023-01-28T06:00:41;7.15;;;3.03;;
75316;SDS011;63913;51.492;10.368;2023-01-28T06:03:07;4.88;;;2.20;;
75316;SDS011;63913;51.492;10.368;2023-01-28T06:05:34;4.82;;;2.63;;
75316;SDS011;63913;51.492;10.368;2023-01-28T06:07:59;5.03;;;3.22;;
75316;SDS011;63913;51.492;10.368;2023-01-28T06:10:25;11.68;;;5.72;;
75316;SDS011;63913;51.492;10.368;2023-01-28T06:12:50;8.57;;;3.53;;
75316;SDS011;63913;51.492;10.368;2023-01-28T06:18:04;11.18;;;5.32;;
75316;SDS011;63913;51.492;10.368;2023-01-28T06:20:33;9.52;;;5.00;;
75316;SDS011;63913;51.492;10.368;2023-01-28T06:22:59;5.88;;;3.33;;
75316;SDS011;63913;51.492;10.368;2023-01-28T06:25:25;5.65;;;2.85;;
75316;SDS011;63913;51.492;10.368;2023-01-28T06:27:51;4.15;;;2.45;;
75316;SDS011;63913;51.492;10.368;2023-01-28T06:30:17;4.10;;;2.40;;
75316;SDS011;63913;51.492;10.368;2023-01-28T06:32:42;5.95;;;2.58;;
75316;SDS011;63913;51.492;10.368;2023-01-28T06:35:08;4.85;;;3.08;;
75316;SDS011;63913;51.492;10.368;2023-01-28T06:37:35;5.18;;;3.58;;
75316;SDS011;63913;51.492;10.368;2023-01-28T06:40:01;4.10;;;2.60;;
75316;SDS011;63913;51.492;10.368;2023-01-28T06:42:27;5.78;;;2.15;;
75316;SDS011;63913;51.492;10.368;2023-01-28T06:44:52;3.07;;;1.60;;
75316;SDS011;63913;51.492;10.368;2023-01-28T06:47:18;3.95;;;2.45;;
75316;SDS011;63913;51.492;10.368;2023-01-28T06:49:44;4.75;;;2.20;;
75316;SDS011;63913;51.492;10.368;2023-01-28T06:52:10;2.97;;;1.60;;
75316;SDS011;63913;51.492;10.368;2023-01-28T06:54:36;5.43;;;1.83;;
75316;SDS011;63913;51.492;10.368;2023-01-28T06:57:01;3.40;;;1.63;;
75316;SDS011;63913;51.492;10.368;2023-01-28T06:59:26;5.13;;;2.22;;
75316;SDS011;63913;51.492;10.368;2023-01-28T07:01:52;3.78;;;1.85;;
75316;SDS011;63913;51.492;10.368;2023-01-28T07:04:17;3.20;;;1.63;;
75316;SDS011;63913;51.492;10.368;2023-01-28T07:06:44;4.60;;;2.22;;
75316;SDS011;63913;51.492;10.368;2023-01-28T07:09:09;3.42;;;1.90;;
75316;SDS011;63913;51.492;10.368;2023-01-28T07:11:34;2.63;;;1.43;;
75316;SDS011;63913;51.492;10.368;2023-01-28T07:14:00;7.10;;;2.10;;
75316;SDS011;63913;51.492;10.368;2023-01-28T07:16:25;4.45;;;1.85;;
75316;SDS011;63913;51.492;10.368;2023-01-28T07:18:50;3.95;;;1.88;;
75316;SDS011;63913;51.492;10.368;2023-01-28T07:21:16;4.80;;;2.00;;
75316;SDS011;63913;51.492;10.368;2023-01-28T07:23:41;3.85;;;1.80;;
75316;SDS011;63913;51.492;10.368;2023-01-28T07:26:07;4.85;;;2.45;;
75316;SDS011;63913;51.492;10.368;2023-01-28T07:28:32;3.30;;;1.70;;
75316;SDS011;63913;51.492;10.368;2023-01-28T07:30:58;5.97;;;1.40;;
75316;SDS011;63913;51.492;10.368;2023-01-28T07:33:23;4.57;;;2.30;;
75316;SDS011;63913;51.492;10.368;2023-01-28T07:35:49;5.63;;;1.83;;
75316;SDS011;63913;51.492;10.368;2023-01-28T07:38:15;3.63;;;1.70;;
75316;SDS011;63913;51.492;10.368;2023-01-28T07:40:41;4.70;;;1.90;;
75316;SDS011;63913;51.492;10.368;2023-01-28T07:43:07;3.08;;;1.95;;
75316;SDS011;63913;51.492;10.368;2023-01-28T07:45:39;4.10;;;2.30;;
75316;SDS011;63913;51.492;10.368;2023-01-28T07:48:05;8.63;;;4.00;;
75316;SDS011;63913;51.492;10.368;2023-01-28T07:50:34;3.05;;;1.80;;
75316;SDS011;63913;51.492;10.368;2023-01-28T07:53:01;3.50;;;1.67;;
75316;SDS011;63913;51.492;10.368;2023-01-28T07:55:31;2.88;;;1.83;;
75316;SDS011;63913;51.492;10.368;2023-01-28T07:58:01;6.45;;;2.70;;
75316;SDS011;63913;51.492;10.368;2023-01-28T08:00:28;11.10;;;4.53;;
75316;SDS011;63913;51.492;10.368;2023-01-28T08:02:59;5.53;;;2.35;;
75316;SDS011;63913;51.492;10.368;2023-01-28T08:05:27;2.72;;;1.60;;
75316;SDS011;63913;51.492;10.368;2023-01-28T08:08:00;2.50;;;1.58;;
75316;SDS011;63913;51.492;10.368;2023-01-28T08:10:27;5.38;;;2.10;;
75316;SDS011;63913;51.492;10.368;2023-01-28T08:12:53;4.53;;;2.13;;
75316;SDS011;63913;51.492;10.368;2023-01-28T08:15:20;4.35;;;1.70;;
75316;SDS011;63913;51.492;10.368;2023-01-28T08:17:46;2.88;;;1.13;;
75316;SDS011;63913;51.492;10.368;2023-01-28T08:20:14;4.13;;;1.92;;
75316;SDS011;63913;51.492;10.368;2023-01-28T08:22:40;4.38;;;1.60;;
75316;SDS011;63913;51.492;10.368;2023-01-28T08:25:06;3.05;;;1.27;;
75316;SDS011;63913;51.492;10.368;2023-01-28T08:27:31;4.53;;;2.15;;
75316;SDS011;63913;51.492;10.368;2023-01-28T08:29:57;6.10;;;2.10;;
75316;SDS011;63913;51.492;10.368;2023-01-28T08:32:22;4.55;;;1.35;;
75316;SDS011;63913;51.492;10.368;2023-01-28T08:34:47;5.50;;;2.10;;
75316;SDS011;63913;51.492;10.368;2023-01-28T08:37:13;2.97;;;1.53;;
75316;SDS011;63913;51.492;10.368;2023-01-28T08:39:38;3.40;;;1.75;;
75316;SDS011;63913;51.492;10.368;2023-01-28T08:42:05;2.60;;;1.38;;
75316;SDS011;63913;51.492;10.368;2023-01-28T08:44:30;2.00;;;1.20;;
75316;SDS011;63913;51.492;10.368;2023-01-28T08:46:56;4.95;;;1.60;;
75316;SDS011;63913;51.492;10.368;2023-01-28T08:49:21;2.60;;;0.90;;
75316;SDS011;63913;51.492;10.368;2023-01-28T08:51:47;1.15;;;0.82;;
75316;SDS011;63913;51.492;10.368;2023-01-28T08:54:13;1.00;;;0.90;;
75316;SDS011;63913;51.492;10.368;2023-01-28T08:56:38;0.50;;;0.50;;
75316;SDS011;63913;51.492;10.368;2023-01-28T08:59:06;2.72;;;1.70;;
75316;SDS011;63913;51.492;10.368;2023-01-28T09:01:32;4.88;;;1.83;;
75316;SDS011;63913;51.492;10.368;2023-01-28T09:03:58;2.58;;;1.20;;
75316;SDS011;63913;51.492;10.368;2023-01-28T09:06:23;4.10;;;1.10;;
75316;SDS011;63913;51.492;10.368;2023-01-28T09:08:48;2.03;;;1.20;;
75316;SDS011;63913;51.492;10.368;2023-01-28T09:11:14;6.55;;;2.63;;
75316;SDS011;63913;51.492;10.368;2023-01-28T09:13:39;5.30;;;1.60;;
75316;SDS011;63913;51.492;10.368;2023-01-28T09:16:05;1.77;;;1.33;;
75316;SDS011;63913;51.492;10.368;2023-01-28T09:18:30;0.85;;;0.80;;
75316;SDS011;63913;51.492;10.368;2023-01-28T09:20:56;0.60;;;0.60;;
75316;SDS011;63913;51.492;10.368;2023-01-28T09:23:21;3.00;;;0.80;;
75316;SDS011;63913;51.492;10.368;2023-01-28T09:25:47;0.70;;;0.68;;
75316;SDS011;63913;51.492;10.368;2023-01-28T09:28:12;1.65;;;0.82;;
75316;SDS011;63913;51.492;10.368;2023-01-28T09:30:37;1.67;;;1.17;;
75316;SDS011;63913;51.492;10.368;2023-01-28T09:33:03;2.85;;;1.50;;
75316;SDS011;63913;51.492;10.368;2023-01-28T09:35:29;4.35;;;1.40;;
75316;SDS011;63913;51.492;10.368;2023-01-28T09:37:57;3.10;;;1.55;;
75316;SDS011;63913;51.492;10.368;2023-01-28T09:42:58;4.20;;;1.60;;
75316;SDS011;63913;51.492;10.368;2023-01-28T09:45:36;8.73;;;3.50;;
75316;SDS011;63913;51.492;10.368;2023-01-28T09:48:09;2.55;;;1.20;;
75316;SDS011;63913;51.492;10.368;2023-01-28T09:50:40;1.55;;;0.90;;
75316;SDS011;63913;51.492;10.368;2023-01-28T09:53:10;1.88;;;1.08;;
75316;SDS011;63913;51.492;10.368;2023-01-28T09:55:43;1.60;;;0.80;;
75316;SDS011;63913;51.492;10.368;2023-01-28T09:58:11;3.33;;;1.10;;
75316;SDS011;63913;51.492;10.368;2023-01-28T10:03:57;1.63;;;0.90;;
75316;SDS011;63913;51.492;10.368;2023-01-28T10:06:33;2.15;;;0.63;;
75316;SDS011;63913;51.492;10.368;2023-01-28T10:17:20;1.60;;;0.80;;
75316;SDS011;63913;51.492;10.368;2023-01-28T10:19:51;3.53;;;1.55;;
75316;SDS011;63913;51.492;10.368;2023-01-28T10:24:50;1.20;;;1.00;;
75316;SDS011;63913;51.492;10.368;2023-01-28T10:27:23;2.85;;;1.17;;
75316;SDS011;63913;51.492;10.368;2023-01-28T10:29:54;2.70;;;1.45;;
75316;SDS011;63913;51.492;10.368;2023-01-28T10:34:58;13.25;;;4.10;;
75316;SDS011;63913;51.492;10.368;2023-01-28T10:37:26;4.38;;;1.58;;
75316;SDS011;63913;51.492;10.368;2023-01-28T10:39:54;1.98;;;1.05;;
75316;SDS011;63913;51.492;10.368;2023-01-28T10:44:58;1.98;;;1.05;;
75316;SDS011;63913;51.492;10.368;2023-01-28T10:47:43;2.08;;;1.17;;
75316;SDS011;63913;51.492;10.368;2023-01-28T10:50:21;3.47;;;1.55;;
75316;SDS011;63913;51.492;10.368;2023-01-28T10:53:01;3.25;;;1.40;;
75316;SDS011;63913;51.492;10.368;2023-01-28T10:57:56;3.83;;;1.25;;
75316;SDS011;63913;51.492;10.368;2023-01-28T11:00:23;1.55;;;1.20;;
75316;SDS011;63913;51.492;10.368;2023-01-28T11:02:51;2.35;;;1.15;;
75316;SDS011;63913;51.492;10.368;2023-01-28T11:05:19;2.20;;;1.10;;
75316;SDS011;63913;51.492;10.368;2023-01-28T11:08:01;2.10;;;1.10;;
75316;SDS011;63913;51.492;10.368;2023-01-28T11:10:32;1.50;;;1.10;;
75316;SDS011;63913;51.492;10.368;2023-01-28T11:13:03;3.22;;;1.55;;
75316;SDS011;63913;51.492;10.368;2023-01-28T11:15:29;5.95;;;1.60;;
75316;SDS011;63913;51.492;10.368;2023-01-28T11:17:57;3.53;;;1.90;;
75316;SDS011;63913;51.492;10.368;2023-01-28T11:20:26;3.35;;;2.00;;
75316;SDS011;63913;51.492;10.368;2023-01-28T11:22:55;3.08;;;1.17;;
75316;SDS011;63913;51.492;10.368;2023-01-28T11:25:34;1.67;;;1.23;;
75316;SDS011;63913;51.492;10.368;2023-01-28T11:28:02;2.67;;;1.25;;
75316;SDS011;63913;51.492;10.368;2023-01-28T11:30:32;3.03;;;1.67;;
75316;SDS011;63913;51.492;10.368;2023-01-28T11:35:38;2.30;;;1.02;;
75316;SDS011;63913;51.492;10.368;2023-01-28T11:38:10;1.03;;;0.80;;
75316;SDS011;63913;51.492;10.368;2023-01-28T11:40:52;2.85;;;1.42;;
75316;SDS011;63913;51.492;10.368;2023-01-28T11:43:22;2.28;;;1.15;;
75316;SDS011;63913;51.492;10.368;2023-01-28T11:45:56;2.78;;;1.00;;
75316;SDS011;63913;51.492;10.368;2023-01-28T11:57:02;3.85;;;2.13;;
75316;SDS011;63913;51.492;10.368;2023-01-28T12:02:45;3.15;;;1.75;;
75316;SDS011;63913;51.492;10.368;2023-01-28T12:16:45;2.65;;;1.38;;
75316;SDS011;63913;51.492;10.368;2023-01-28T12:19:38;2.78;;;1.65;;
75316;SDS011;63913;51.492;10.368;2023-01-28T12:33:47;2.70;;;1.55;;
75316;SDS011;63913;51.492;10.368;2023-01-28T12:41:52;1.58;;;1.23;;
75316;SDS011;63913;51.492;10.368;2023-01-28T12:44:31;4.50;;;2.72;;
75316;SDS011;63913;51.492;10.368;2023-01-28T12:47:05;5.40;;;1.30;;
75316;SDS011;63913;51.492;10.368;2023-01-28T12:49:42;2.53;;;0.90;;
75316;SDS011;63913;51.492;10.368;2023-01-28T12:52:27;2.20;;;1.30;;
75316;SDS011;63913;51.492;10.368;2023-01-28T12:58:02;84.97;;;25.77;;
75316;SDS011;63913;51.492;10.368;2023-01-28T13:00:35;6.53;;;2.75;;
75316;SDS011;63913;51.492;10.368;2023-01-28T13:05:59;4.82;;;2.38;;
75316;SDS011;63913;51.492;10.368;2023-01-28T13:08:29;1.27;;;1.13;;
75316;SDS011;63913;51.492;10.368;2023-01-28T13:10:56;2.58;;;1.23;;
75316;SDS011;63913;51.492;10.368;2023-01-28T13:16:04;20.80;;;7.35;;
75316;SDS011;63913;51.492;10.368;2023-01-28T13:21:06;7.20;;;2.40;;
75316;SDS011;63913;51.492;10.368;2023-01-28T13:28:42;7.47;;;2.78;;
75316;SDS011;63913;51.492;10.368;2023-01-28T13:31:10;2.35;;;1.42;;
75316;SDS011;63913;51.492;10.368;2023-01-28T13:33:41;3.63;;;1.48;;
75316;SDS011;63913;51.492;10.368;2023-01-28T13:39:01;2.13;;;1.40;;
75316;SDS011;63913;51.492;10.368;2023-01-28T13:41:47;4.30;;;3.90;;
75316;SDS011;63913;51.492;10.368;2023-01-28T13:44:29;3.20;;;1.90;;
75316;SDS011;63913;51.492;10.368;2023-01-28T13:46:58;2.00;;;1.10;;
75316;SDS011;63913;51.492;10.368;2023-01-28T13:49:43;1.02;;;0.80;;
75316;SDS011;63913;51.492;10.368;2023-01-28T13:55:20;2.47;;;1.67;;
75316;SDS011;63913;51.492;10.368;2023-01-28T14:14:56;2.78;;;0.70;;
75316;SDS011;63913;51.492;10.368;2023-01-28T14:17:44;0.55;;;0.55;;
75316;SDS011;63913;51.492;10.368;2023-01-28T14:20:16;1.73;;;0.73;;
75316;SDS011;63913;51.492;10.368;2023-01-28T14:22:45;2.30;;;0.77;;
75316;SDS011;63913;51.492;10.368;2023-01-28T14:25:11;2.80;;;0.95;;
75316;SDS011;63913;51.492;10.368;2023-01-28T14:27:42;0.95;;;0.70;;
75316;SDS011;63913;51.492;10.368;2023-01-28T14:30:14;7.57;;;1.00;;
75316;SDS011;63913;51.492;10.368;2023-01-28T14:32:45;1.05;;;0.70;;
75316;SDS011;63913;51.492;10.368;2023-01-28T14:35:32;1.77;;;1.27;;
75316;SDS011;63913;51.492;10.368;2023-01-28T14:38:05;1.58;;;0.90;;
75316;SDS011;63913;51.492;10.368;2023-01-28T14:40:33;3.42;;;1.83;;
75316;SDS011;63913;51.492;10.368;2023-01-28T14:43:01;10.07;;;3.90;;
75316;SDS011;63913;51.492;10.368;2023-01-28T14:48:20;6.22;;;2.67;;
75316;SDS011;63913;51.492;10.368;2023-01-28T14:56:08;10.00;;;3.20;;
75316;SDS011;63913;51.492;10.368;2023-01-28T14:58:44;3.33;;;1.92;;
75316;SDS011;63913;51.492;10.368;2023-01-28T15:01:22;5.82;;;2.13;;
75316;SDS011;63913;51.492;10.368;2023-01-28T15:03:49;4.28;;;1.60;;
75316;SDS011;63913;51.492;10.368;2023-01-28T15:06:15;1.45;;;1.13;;
75316;SDS011;63913;51.492;10.368;2023-01-28T15:08:44;1.80;;;1.30;;
75316;SDS011;63913;51.492;10.368;2023-01-28T15:11:11;4.20;;;1.23;;
75316;SDS011;63913;51.492;10.368;2023-01-28T15:13:41;2.65;;;1.58;;
75316;SDS011;63913;51.492;10.368;2023-01-28T15:16:15;2.28;;;1.30;;
75316;SDS011;63913;51.492;10.368;2023-01-28T15:18:44;1.95;;;1.08;;
75316;SDS011;63913;51.492;10.368;2023-01-28T15:21:11;3.45;;;1.38;;
75316;SDS011;63913;51.492;10.368;2023-01-28T15:23:37;7.20;;;2.63;;
75316;SDS011;63913;51.492;10.368;2023-01-28T15:26:05;6.55;;;3.20;;
75316;SDS011;63913;51.492;10.368;2023-01-28T15:28:43;4.28;;;2.42;;
75316;SDS011;63913;51.492;10.368;2023-01-28T15:31:20;6.43;;;3.20;;
75316;SDS011;63913;51.492;10.368;2023-01-28T15:33:57;7.22;;;3.10;;
75316;SDS011;63913;51.492;10.368;2023-01-28T15:36:25;5.07;;;2.83;;
75316;SDS011;63913;51.492;10.368;2023-01-28T15:38:51;8.68;;;5.10;;
75316;SDS011;63913;51.492;10.368;2023-01-28T15:41:18;7.50;;;3.28;;
75316;SDS011;63913;51.492;10.368;2023-01-28T15:43:47;6.55;;;3.03;;
75316;SDS011;63913;51.492;10.368;2023-01-28T15:46:14;1.80;;;1.40;;
75316;SDS011;63913;51.492;10.368;2023-01-28T15:48:41;2.10;;;1.38;;
75316;SDS011;63913;51.492;10.368;2023-01-28T15:51:17;4.05;;;2.15;;
75316;SDS011;63913;51.492;10.368;2023-01-28T15:53:46;8.07;;;4.97;;
75316;SDS011;63913;51.492;10.368;2023-01-28T15:56:14;4.75;;;1.85;;
75316;SDS011;63913;51.492;10.368;2023-01-28T15:58:40;3.67;;;1.73;;
75316;SDS011;63913;51.492;10.368;2023-01-28T16:03:32;2.07;;;1.00;;
75316;SDS011;63913;51.492;10.368;2023-01-28T16:06:04;2.30;;;1.88;;
75316;SDS011;63913;51.492;10.368;2023-01-28T16:11:23;2.47;;;1.50;;
75316;SDS011;63913;51.492;10.368;2023-01-28T16:13:52;7.15;;;4.00;;
75316;SDS011;63913;51.492;10.368;2023-01-28T16:16:25;8.88;;;4.60;;
75316;SDS011;63913;51.492;10.368;2023-01-28T16:18:53;7.05;;;3.60;;
75316;SDS011;63913;51.492;10.368;2023-01-28T16:21:24;1.85;;;1.60;;
75316;SDS011;63913;51.492;10.368;2023-01-28T16:24:03;2.90;;;1.70;;
75316;SDS011;63913;51.492;10.368;2023-01-28T16:26:31;5.38;;;1.60;;
75316;SDS011;63913;51.492;10.368;2023-01-28T16:28:59;4.85;;;1.75;;
75316;SDS011;63913;51.492;10.368;2023-01-28T16:34:00;2.40;;;1.43;;
75316;SDS011;63913;51.492;10.368;2023-01-28T16:36:26;2.55;;;1.42;;
75316;SDS011;63913;51.492;10.368;2023-01-28T16:38:51;1.77;;;1.23;;
75316;SDS011;63913;51.492;10.368;2023-01-28T16:41:20;3.25;;;1.98;;
75316;SDS011;63913;51.492;10.368;2023-01-28T16:43:50;4.25;;;1.95;;
75316;SDS011;63913;51.492;10.368;2023-01-28T16:46:15;8.10;;;3.07;;
75316;SDS011;63913;51.492;10.368;2023-01-28T16:48:41;4.38;;;2.30;;
75316;SDS011;63913;51.492;10.368;2023-01-28T16:51:09;3.70;;;2.23;;
75316;SDS011;63913;51.492;10.368;2023-01-28T16:53:40;2.85;;;1.98;;
75316;SDS011;63913;51.492;10.368;2023-01-28T16:56:06;17.08;;;6.13;;
75316;SDS011;63913;51.492;10.368;2023-01-28T16:58:33;5.60;;;3.13;;
75316;SDS011;63913;51.492;10.368;2023-01-28T17:00:59;2.58;;;1.73;;
75316;SDS011;63913;51.492;10.368;2023-01-28T17:03:24;3.00;;;1.83;;
75316;SDS011;63913;51.492;10.368;2023-01-28T17:05:51;4.13;;;2.08;;
75316;SDS011;63913;51.492;10.368;2023-01-28T17:08:16;8.32;;;4.03;;
75316;SDS011;63913;51.492;10.368;2023-01-28T17:10:41;38.23;;;19.07;;
75316;SDS011;63913;51.492;10.368;2023-01-28T17:13:07;45.63;;;24.42;;
75316;SDS011;63913;51.492;10.368;2023-01-28T17:15:33;37.05;;;18.67;;
75316;SDS011;63913;51.492;10.368;2023-01-28T17:18:00;37.00;;;18.30;;
75316;SDS011;63913;51.492;10.368;2023-01-28T17:20:25;17.73;;;10.93;;
75316;SDS011;63913;51.492;10.368;2023-01-28T17:22:51;22.27;;;10.82;;